sensor_id;sensor_type;location;lat;lon;timestamp;temperature;humidity
48836;DHT22;62581;47.342;7.908;2022-08-01T00:02:18;21.70;99.90
48836;DHT22;62581;47.342;7.908;2022-08-01T00:04:45;21.60;99.90
48836;DHT22;62581;47.342;7.908;2022-08-01T00:07:12;21.50;99.90
48836;DHT22;62581;47.342;7.908;2022-08-01T00:09:39;21.50;99.90
48836;DHT22;62581;47.342;7.908;2022-08-01T00:12:06;21.40;99.90
48836;DHT22;62581;47.342;7.908;2022-08-01T00:14:34;21.40;99.90
48836;DHT22;62581;47.342;7.908;2022-08-01T00:17:01;21.40;99.90
48836;DHT22;62581;47.342;7.908;2022-08-01T00:19:28;21.30;99.90
48836;DHT22;62581;47.342;7.908;2022-08-01T00:21:55;21.30;99.90
48836;DHT22;62581;47.342;7.908;2022-08-01T00:24:22;21.20;99.90
48836;DHT22;62581;47.342;7.908;2022-08-01T00:26:49;21.20;99.90
48836;DHT22;62581;47.342;7.908;2022-08-01T00:29:16;21.20;99.90
48836;DHT22;62581;47.342;7.908;2022-08-01T00:31:44;21.10;99.90
48836;DHT22;62581;47.342;7.908;2022-08-01T00:34:11;21.10;99.90
48836;DHT22;62581;47.342;7.908;2022-08-01T00:36:38;21.10;99.90
48836;DHT22;62581;47.342;7.908;2022-08-01T00:39:05;21.00;99.90
48836;DHT22;62581;47.342;7.908;2022-08-01T00:41:32;21.00;99.90
48836;DHT22;62581;47.342;7.908;2022-08-01T00:44:03;21.00;99.90
48836;DHT22;62581;47.342;7.908;2022-08-01T00:46:30;20.90;99.90
48836;DHT22;62581;47.342;7.908;2022-08-01T00:48:59;20.90;99.90
48836;DHT22;62581;47.342;7.908;2022-08-01T00:51:26;20.90;99.90
48836;DHT22;62581;47.342;7.908;2022-08-01T00:53:54;20.90;99.90
48836;DHT22;62581;47.342;7.908;2022-08-01T00:56:24;20.90;99.90
48836;DHT22;62581;47.342;7.908;2022-08-01T00:58:51;20.90;99.90
48836;DHT22;62581;47.342;7.908;2022-08-01T01:01:20;20.90;99.90
48836;DHT22;62581;47.342;7.908;2022-08-01T01:03:48;20.90;99.90
48836;DHT22;62581;47.342;7.908;2022-08-01T01:06:26;20.90;99.90
48836;DHT22;62581;47.342;7.908;2022-08-01T01:09:00;20.80;99.90
48836;DHT22;62581;47.342;7.908;2022-08-01T01:11:34;20.80;99.90
48836;DHT22;62581;47.342;7.908;2022-08-01T01:14:08;20.80;99.90
48836;DHT22;62581;47.342;7.908;2022-08-01T01:16:40;20.70;99.90
48836;DHT22;62581;47.342;7.908;2022-08-01T01:19:13;20.70;99.90
48836;DHT22;62581;47.342;7.908;2022-08-01T01:22:08;20.70;99.90
48836;DHT22;62581;47.342;7.908;2022-08-01T01:24:55;20.70;99.90
48836;DHT22;62581;47.342;7.908;2022-08-01T01:27:35;20.60;99.90
48836;DHT22;62581;47.342;7.908;2022-08-01T01:30:05;20.60;99.90
48836;DHT22;62581;47.342;7.908;2022-08-01T01:32:35;20.50;99.90
48836;DHT22;62581;47.342;7.908;2022-08-01T01:35:06;20.50;99.90
48836;DHT22;62581;47.342;7.908;2022-08-01T01:37:36;20.50;99.90
48836;DHT22;62581;47.342;7.908;2022-08-01T01:40:06;20.50;99.90
48836;DHT22;62581;47.342;7.908;2022-08-01T01:42:34;20.40;99.90
48836;DHT22;62581;47.342;7.908;2022-08-01T01:45:05;20.40;99.90
48836;DHT22;62581;47.342;7.908;2022-08-01T01:47:34;20.40;99.90
48836;DHT22;62581;47.342;7.908;2022-08-01T01:50:04;20.40;99.90
48836;DHT22;62581;47.342;7.908;2022-08-01T01:52:32;20.30;99.90
48836;DHT22;62581;47.342;7.908;2022-08-01T01:55:01;20.30;99.90
48836;DHT22;62581;47.342;7.908;2022-08-01T01:57:32;20.20;99.90
48836;DHT22;62581;47.342;7.908;2022-08-01T02:00:00;20.20;99.90
48836;DHT22;62581;47.342;7.908;2022-08-01T02:02:29;20.20;99.90
48836;DHT22;62581;47.342;7.908;2022-08-01T02:04:57;20.20;99.90
48836;DHT22;62581;47.342;7.908;2022-08-01T02:07:26;20.20;99.90
48836;DHT22;62581;47.342;7.908;2022-08-01T02:09:54;20.20;99.90
48836;DHT22;62581;47.342;7.908;2022-08-01T02:12:22;20.20;99.90
48836;DHT22;62581;47.342;7.908;2022-08-01T02:14:52;20.10;99.90
48836;DHT22;62581;47.342;7.908;2022-08-01T02:17:20;20.10;99.90
48836;DHT22;62581;47.342;7.908;2022-08-01T02:19:49;20.10;99.90
48836;DHT22;62581;47.342;7.908;2022-08-01T02:22:19;20.10;99.90
48836;DHT22;62581;47.342;7.908;2022-08-01T02:24:52;20.10;99.90
48836;DHT22;62581;47.342;7.908;2022-08-01T02:27:25;20.10;99.90
48836;DHT22;62581;47.342;7.908;2022-08-01T02:29:58;20.00;99.90
48836;DHT22;62581;47.342;7.908;2022-08-01T02:32:35;20.00;99.90
48836;DHT22;62581;47.342;7.908;2022-08-01T02:35:08;20.00;99.90
48836;DHT22;62581;47.342;7.908;2022-08-01T02:37:38;20.00;99.90
48836;DHT22;62581;47.342;7.908;2022-08-01T02:40:08;19.90;99.90
48836;DHT22;62581;47.342;7.908;2022-08-01T02:42:37;19.90;99.90
48836;DHT22;62581;47.342;7.908;2022-08-01T02:45:07;19.90;99.90
48836;DHT22;62581;47.342;7.908;2022-08-01T02:47:36;19.70;99.90
48836;DHT22;62581;47.342;7.908;2022-08-01T02:50:07;19.70;99.90
48836;DHT22;62581;47.342;7.908;2022-08-01T02:52:36;19.70;99.90
48836;DHT22;62581;47.342;7.908;2022-08-01T02:55:03;19.70;99.90
48836;DHT22;62581;47.342;7.908;2022-08-01T02:57:32;19.60;99.90
48836;DHT22;62581;47.342;7.908;2022-08-01T03:00:00;19.60;99.90
48836;DHT22;62581;47.342;7.908;2022-08-01T03:02:29;19.60;99.90
48836;DHT22;62581;47.342;7.908;2022-08-01T03:04:57;19.60;99.90
48836;DHT22;62581;47.342;7.908;2022-08-01T03:07:28;19.50;99.90
48836;DHT22;62581;47.342;7.908;2022-08-01T03:09:56;19.50;99.90
48836;DHT22;62581;47.342;7.908;2022-08-01T03:12:27;19.50;99.90
48836;DHT22;62581;47.342;7.908;2022-08-01T03:14:56;19.50;99.90
48836;DHT22;62581;47.342;7.908;2022-08-01T03:17:25;19.50;99.90
48836;DHT22;62581;47.342;7.908;2022-08-01T03:19:54;19.50;99.90
48836;DHT22;62581;47.342;7.908;2022-08-01T03:22:24;19.40;99.90
48836;DHT22;62581;47.342;7.908;2022-08-01T03:24:54;19.50;99.90
48836;DHT22;62581;47.342;7.908;2022-08-01T03:27:23;19.50;99.90
48836;DHT22;62581;47.342;7.908;2022-08-01T03:29:51;19.50;99.90
48836;DHT22;62581;47.342;7.908;2022-08-01T03:32:22;19.50;99.90
48836;DHT22;62581;47.342;7.908;2022-08-01T03:34:49;19.40;99.90
48836;DHT22;62581;47.342;7.908;2022-08-01T03:37:21;19.40;99.90
48836;DHT22;62581;47.342;7.908;2022-08-01T03:39:57;19.40;99.90
48836;DHT22;62581;47.342;7.908;2022-08-01T03:42:31;19.40;99.90
48836;DHT22;62581;47.342;7.908;2022-08-01T03:45:01;19.40;99.90
48836;DHT22;62581;47.342;7.908;2022-08-01T03:47:31;19.40;99.90
48836;DHT22;62581;47.342;7.908;2022-08-01T03:49:59;19.40;99.90
48836;DHT22;62581;47.342;7.908;2022-08-01T03:52:29;19.40;99.90
48836;DHT22;62581;47.342;7.908;2022-08-01T03:55:01;19.40;99.90
48836;DHT22;62581;47.342;7.908;2022-08-01T03:57:30;19.40;99.90
48836;DHT22;62581;47.342;7.908;2022-08-01T03:59:58;19.30;99.90
48836;DHT22;62581;47.342;7.908;2022-08-01T04:02:26;19.40;99.90
48836;DHT22;62581;47.342;7.908;2022-08-01T04:04:54;19.40;99.90
48836;DHT22;62581;47.342;7.908;2022-08-01T04:07:22;19.40;99.90
48836;DHT22;62581;47.342;7.908;2022-08-01T04:09:49;19.40;99.90
48836;DHT22;62581;47.342;7.908;2022-08-01T04:12:18;19.40;99.90
48836;DHT22;62581;47.342;7.908;2022-08-01T04:14:45;19.40;99.90
48836;DHT22;62581;47.342;7.908;2022-08-01T04:17:13;19.40;99.90
48836;DHT22;62581;47.342;7.908;2022-08-01T04:19:40;19.30;99.90
48836;DHT22;62581;47.342;7.908;2022-08-01T04:22:08;19.40;99.90
48836;DHT22;62581;47.342;7.908;2022-08-01T04:24:36;19.40;99.90
48836;DHT22;62581;47.342;7.908;2022-08-01T04:27:08;19.30;99.90
48836;DHT22;62581;47.342;7.908;2022-08-01T04:29:38;19.30;99.90
48836;DHT22;62581;47.342;7.908;2022-08-01T04:32:07;19.30;99.90
48836;DHT22;62581;47.342;7.908;2022-08-01T04:34:37;19.30;99.90
48836;DHT22;62581;47.342;7.908;2022-08-01T04:37:07;19.30;99.90
48836;DHT22;62581;47.342;7.908;2022-08-01T04:39:37;19.30;99.90
48836;DHT22;62581;47.342;7.908;2022-08-01T04:42:07;19.40;99.90
48836;DHT22;62581;47.342;7.908;2022-08-01T04:44:34;19.40;99.90
48836;DHT22;62581;47.342;7.908;2022-08-01T04:47:03;19.30;99.90
48836;DHT22;62581;47.342;7.908;2022-08-01T04:49:33;19.40;99.90
48836;DHT22;62581;47.342;7.908;2022-08-01T04:52:00;19.40;99.90
48836;DHT22;62581;47.342;7.908;2022-08-01T04:54:29;19.40;99.90
48836;DHT22;62581;47.342;7.908;2022-08-01T04:56:59;19.40;99.90
48836;DHT22;62581;47.342;7.908;2022-08-01T04:59:26;19.50;99.90
48836;DHT22;62581;47.342;7.908;2022-08-01T05:02:08;19.40;99.90
48836;DHT22;62581;47.342;7.908;2022-08-01T05:04:35;19.50;99.90
48836;DHT22;62581;47.342;7.908;2022-08-01T05:07:03;19.50;99.90
48836;DHT22;62581;47.342;7.908;2022-08-01T05:09:30;19.50;99.90
48836;DHT22;62581;47.342;7.908;2022-08-01T05:11:57;19.50;99.90
48836;DHT22;62581;47.342;7.908;2022-08-01T05:14:25;19.50;99.90
48836;DHT22;62581;47.342;7.908;2022-08-01T05:16:52;19.50;99.90
48836;DHT22;62581;47.342;7.908;2022-08-01T05:19:20;19.50;99.90
48836;DHT22;62581;47.342;7.908;2022-08-01T05:21:47;19.60;99.90
48836;DHT22;62581;47.342;7.908;2022-08-01T05:24:14;19.60;99.90
48836;DHT22;62581;47.342;7.908;2022-08-01T05:26:41;19.70;99.90
48836;DHT22;62581;47.342;7.908;2022-08-01T05:29:08;19.70;99.90
48836;DHT22;62581;47.342;7.908;2022-08-01T05:31:35;19.80;99.90
48836;DHT22;62581;47.342;7.908;2022-08-01T05:34:02;19.80;99.90
48836;DHT22;62581;47.342;7.908;2022-08-01T05:36:31;19.90;99.90
48836;DHT22;62581;47.342;7.908;2022-08-01T05:38:58;19.90;99.90
48836;DHT22;62581;47.342;7.908;2022-08-01T05:41:25;20.00;99.90
48836;DHT22;62581;47.342;7.908;2022-08-01T05:43:51;20.10;99.90
48836;DHT22;62581;47.342;7.908;2022-08-01T05:46:18;20.20;99.90
48836;DHT22;62581;47.342;7.908;2022-08-01T05:48:45;20.20;99.90
48836;DHT22;62581;47.342;7.908;2022-08-01T05:51:12;20.30;99.90
48836;DHT22;62581;47.342;7.908;2022-08-01T05:53:40;20.40;99.90
48836;DHT22;62581;47.342;7.908;2022-08-01T05:56:07;20.40;99.90
48836;DHT22;62581;47.342;7.908;2022-08-01T05:58:34;20.60;99.90
48836;DHT22;62581;47.342;7.908;2022-08-01T06:01:01;20.60;99.90
48836;DHT22;62581;47.342;7.908;2022-08-01T06:03:28;20.70;99.90
48836;DHT22;62581;47.342;7.908;2022-08-01T06:05:56;20.70;99.90
48836;DHT22;62581;47.342;7.908;2022-08-01T06:08:23;20.80;99.90
48836;DHT22;62581;47.342;7.908;2022-08-01T06:10:52;21.00;99.90
48836;DHT22;62581;47.342;7.908;2022-08-01T06:13:19;21.10;99.90
48836;DHT22;62581;47.342;7.908;2022-08-01T06:15:46;21.10;99.90
48836;DHT22;62581;47.342;7.908;2022-08-01T06:18:13;21.10;99.90
48836;DHT22;62581;47.342;7.908;2022-08-01T06:20:40;21.20;99.90
48836;DHT22;62581;47.342;7.908;2022-08-01T06:23:08;21.30;99.90
48836;DHT22;62581;47.342;7.908;2022-08-01T06:25:35;21.30;99.90
48836;DHT22;62581;47.342;7.908;2022-08-01T06:28:03;21.30;99.90
48836;DHT22;62581;47.342;7.908;2022-08-01T06:30:30;21.10;99.90
48836;DHT22;62581;47.342;7.908;2022-08-01T06:32:57;21.00;99.90
48836;DHT22;62581;47.342;7.908;2022-08-01T06:35:25;21.10;99.90
48836;DHT22;62581;47.342;7.908;2022-08-01T06:37:54;21.10;99.90
48836;DHT22;62581;47.342;7.908;2022-08-01T06:40:21;21.10;99.90
48836;DHT22;62581;47.342;7.908;2022-08-01T06:42:48;21.10;99.90
48836;DHT22;62581;47.342;7.908;2022-08-01T06:45:16;21.10;99.90
48836;DHT22;62581;47.342;7.908;2022-08-01T06:47:44;21.10;99.90
48836;DHT22;62581;47.342;7.908;2022-08-01T06:50:11;21.20;99.90
48836;DHT22;62581;47.342;7.908;2022-08-01T06:52:39;21.20;99.90
48836;DHT22;62581;47.342;7.908;2022-08-01T06:55:07;21.20;99.90
48836;DHT22;62581;47.342;7.908;2022-08-01T06:57:34;21.30;99.90
48836;DHT22;62581;47.342;7.908;2022-08-01T07:00:05;21.40;99.90
48836;DHT22;62581;47.342;7.908;2022-08-01T07:02:35;21.50;99.90
48836;DHT22;62581;47.342;7.908;2022-08-01T07:05:03;21.60;99.90
48836;DHT22;62581;47.342;7.908;2022-08-01T07:07:30;21.80;99.90
48836;DHT22;62581;47.342;7.908;2022-08-01T07:09:57;21.90;99.90
48836;DHT22;62581;47.342;7.908;2022-08-01T07:12:24;22.00;99.90
48836;DHT22;62581;47.342;7.908;2022-08-01T07:14:51;22.10;99.90
48836;DHT22;62581;47.342;7.908;2022-08-01T07:17:18;22.10;99.90
48836;DHT22;62581;47.342;7.908;2022-08-01T07:19:47;22.20;99.90
48836;DHT22;62581;47.342;7.908;2022-08-01T07:22:14;22.20;99.90
48836;DHT22;62581;47.342;7.908;2022-08-01T07:24:41;22.20;99.90
48836;DHT22;62581;47.342;7.908;2022-08-01T07:27:08;22.20;99.90
48836;DHT22;62581;47.342;7.908;2022-08-01T07:29:35;22.30;99.90
48836;DHT22;62581;47.342;7.908;2022-08-01T07:32:02;22.30;99.90
48836;DHT22;62581;47.342;7.908;2022-08-01T07:34:29;22.40;99.90
48836;DHT22;62581;47.342;7.908;2022-08-01T07:36:58;22.40;99.90
48836;DHT22;62581;47.342;7.908;2022-08-01T07:39:25;22.50;99.90
48836;DHT22;62581;47.342;7.908;2022-08-01T07:41:52;22.50;99.90
48836;DHT22;62581;47.342;7.908;2022-08-01T07:44:18;22.60;99.90
48836;DHT22;62581;47.342;7.908;2022-08-01T07:46:45;22.60;99.90
48836;DHT22;62581;47.342;7.908;2022-08-01T07:49:12;22.70;99.90
48836;DHT22;62581;47.342;7.908;2022-08-01T07:51:39;22.70;99.90
48836;DHT22;62581;47.342;7.908;2022-08-01T07:54:07;22.80;99.90
48836;DHT22;62581;47.342;7.908;2022-08-01T07:56:34;22.90;99.90
48836;DHT22;62581;47.342;7.908;2022-08-01T07:59:01;22.90;99.90
48836;DHT22;62581;47.342;7.908;2022-08-01T08:01:28;22.90;99.90
48836;DHT22;62581;47.342;7.908;2022-08-01T08:03:55;23.00;99.90
48836;DHT22;62581;47.342;7.908;2022-08-01T08:06:22;23.20;99.90
48836;DHT22;62581;47.342;7.908;2022-08-01T08:08:49;23.20;99.90
48836;DHT22;62581;47.342;7.908;2022-08-01T08:11:18;23.30;99.90
48836;DHT22;62581;47.342;7.908;2022-08-01T08:13:45;23.30;99.90
48836;DHT22;62581;47.342;7.908;2022-08-01T08:16:12;23.30;99.90
48836;DHT22;62581;47.342;7.908;2022-08-01T08:18:39;23.50;99.90
48836;DHT22;62581;47.342;7.908;2022-08-01T08:21:06;23.50;99.90
48836;DHT22;62581;47.342;7.908;2022-08-01T08:23:33;23.60;99.90
48836;DHT22;62581;47.342;7.908;2022-08-01T08:26:18;23.70;99.90
48836;DHT22;62581;47.342;7.908;2022-08-01T08:28:47;23.70;99.90
48836;DHT22;62581;47.342;7.908;2022-08-01T08:31:14;23.70;99.90
48836;DHT22;62581;47.342;7.908;2022-08-01T08:33:41;23.80;99.90
48836;DHT22;62581;47.342;7.908;2022-08-01T08:36:08;23.90;99.90
48836;DHT22;62581;47.342;7.908;2022-08-01T08:38:36;24.00;99.90
48836;DHT22;62581;47.342;7.908;2022-08-01T08:41:03;24.10;99.90
48836;DHT22;62581;47.342;7.908;2022-08-01T08:43:32;24.20;99.90
48836;DHT22;62581;47.342;7.908;2022-08-01T08:46:00;24.30;99.90
48836;DHT22;62581;47.342;7.908;2022-08-01T08:48:28;24.30;99.90
48836;DHT22;62581;47.342;7.908;2022-08-01T08:50:57;24.40;99.90
48836;DHT22;62581;47.342;7.908;2022-08-01T08:53:26;24.50;99.90
48836;DHT22;62581;47.342;7.908;2022-08-01T08:55:54;24.60;99.90
48836;DHT22;62581;47.342;7.908;2022-08-01T08:58:26;24.70;99.90
48836;DHT22;62581;47.342;7.908;2022-08-01T09:00:54;24.80;99.90
48836;DHT22;62581;47.342;7.908;2022-08-01T09:03:21;24.90;99.90
48836;DHT22;62581;47.342;7.908;2022-08-01T09:05:48;24.90;99.90
48836;DHT22;62581;47.342;7.908;2022-08-01T09:08:15;25.00;99.90
48836;DHT22;62581;47.342;7.908;2022-08-01T09:10:42;25.00;99.80
48836;DHT22;62581;47.342;7.908;2022-08-01T09:13:10;25.00;99.70
48836;DHT22;62581;47.342;7.908;2022-08-01T09:15:42;25.10;99.80
48836;DHT22;62581;47.342;7.908;2022-08-01T09:18:26;25.20;99.90
48836;DHT22;62581;47.342;7.908;2022-08-01T09:21:08;25.30;98.60
48836;DHT22;62581;47.342;7.908;2022-08-01T09:23:37;25.40;98.90
48836;DHT22;62581;47.342;7.908;2022-08-01T09:26:05;25.50;98.60
48836;DHT22;62581;47.342;7.908;2022-08-01T09:28:32;25.60;98.60
48836;DHT22;62581;47.342;7.908;2022-08-01T09:31:05;25.60;98.00
48836;DHT22;62581;47.342;7.908;2022-08-01T09:33:48;25.70;98.20
48836;DHT22;62581;47.342;7.908;2022-08-01T09:36:16;25.80;97.60
48836;DHT22;62581;47.342;7.908;2022-08-01T09:38:44;25.90;97.60
48836;DHT22;62581;47.342;7.908;2022-08-01T09:41:11;25.90;97.50
48836;DHT22;62581;47.342;7.908;2022-08-01T09:43:38;26.00;97.50
48836;DHT22;62581;47.342;7.908;2022-08-01T09:46:09;26.10;97.00
48836;DHT22;62581;47.342;7.908;2022-08-01T09:48:37;26.20;96.40
48836;DHT22;62581;47.342;7.908;2022-08-01T09:51:06;26.30;96.50
48836;DHT22;62581;47.342;7.908;2022-08-01T09:53:41;26.30;96.10
48836;DHT22;62581;47.342;7.908;2022-08-01T09:56:09;26.40;95.70
48836;DHT22;62581;47.342;7.908;2022-08-01T09:58:49;26.60;95.60
48836;DHT22;62581;47.342;7.908;2022-08-01T10:01:16;26.70;94.80
48836;DHT22;62581;47.342;7.908;2022-08-01T10:03:43;26.80;93.90
48836;DHT22;62581;47.342;7.908;2022-08-01T10:06:21;26.80;93.70
48836;DHT22;62581;47.342;7.908;2022-08-01T10:08:49;26.80;93.30
48836;DHT22;62581;47.342;7.908;2022-08-01T10:11:16;26.90;93.10
48836;DHT22;62581;47.342;7.908;2022-08-01T10:13:43;27.00;92.70
48836;DHT22;62581;47.342;7.908;2022-08-01T10:16:12;27.00;92.40
48836;DHT22;62581;47.342;7.908;2022-08-01T10:18:40;27.20;92.30
48836;DHT22;62581;47.342;7.908;2022-08-01T10:21:07;27.30;92.70
48836;DHT22;62581;47.342;7.908;2022-08-01T10:23:37;27.40;91.80
48836;DHT22;62581;47.342;7.908;2022-08-01T10:26:05;27.40;91.80
48836;DHT22;62581;47.342;7.908;2022-08-01T10:28:36;27.50;91.20
48836;DHT22;62581;47.342;7.908;2022-08-01T10:31:03;27.70;91.40
48836;DHT22;62581;47.342;7.908;2022-08-01T10:33:30;27.70;91.00
48836;DHT22;62581;47.342;7.908;2022-08-01T10:35:57;27.80;90.10
48836;DHT22;62581;47.342;7.908;2022-08-01T10:38:25;27.90;90.50
48836;DHT22;62581;47.342;7.908;2022-08-01T10:40:57;28.00;90.50
48836;DHT22;62581;47.342;7.908;2022-08-01T10:43:26;28.20;90.10
48836;DHT22;62581;47.342;7.908;2022-08-01T10:45:53;28.30;89.80
48836;DHT22;62581;47.342;7.908;2022-08-01T10:48:24;28.30;89.10
48836;DHT22;62581;47.342;7.908;2022-08-01T10:50:55;28.40;87.80
48836;DHT22;62581;47.342;7.908;2022-08-01T10:53:26;28.50;86.60
48836;DHT22;62581;47.342;7.908;2022-08-01T10:55:59;28.40;86.40
48836;DHT22;62581;47.342;7.908;2022-08-01T10:58:28;28.40;87.10
48836;DHT22;62581;47.342;7.908;2022-08-01T11:01:23;28.50;87.30
48836;DHT22;62581;47.342;7.908;2022-08-01T11:04:01;28.70;86.70
48836;DHT22;62581;47.342;7.908;2022-08-01T11:06:54;28.90;86.30
48836;DHT22;62581;47.342;7.908;2022-08-01T11:09:31;29.10;85.30
48836;DHT22;62581;47.342;7.908;2022-08-01T11:12:08;29.30;85.00
48836;DHT22;62581;47.342;7.908;2022-08-01T11:18:03;29.70;83.30
48836;DHT22;62581;47.342;7.908;2022-08-01T11:20:32;29.60;83.40
48836;DHT22;62581;47.342;7.908;2022-08-01T11:23:23;29.70;84.40
48836;DHT22;62581;47.342;7.908;2022-08-01T11:26:10;29.80;83.00
48836;DHT22;62581;47.342;7.908;2022-08-01T11:28:39;29.90;81.50
48836;DHT22;62581;47.342;7.908;2022-08-01T11:31:26;29.90;81.00
48836;DHT22;62581;47.342;7.908;2022-08-01T11:33:54;30.00;81.20
48836;DHT22;62581;47.342;7.908;2022-08-01T11:36:21;29.90;79.50
48836;DHT22;62581;47.342;7.908;2022-08-01T11:38:50;29.90;78.80
48836;DHT22;62581;47.342;7.908;2022-08-01T11:41:39;29.90;79.20
48836;DHT22;62581;47.342;7.908;2022-08-01T11:44:07;30.00;79.00
48836;DHT22;62581;47.342;7.908;2022-08-01T11:46:48;30.10;79.10
48836;DHT22;62581;47.342;7.908;2022-08-01T11:52:26;30.20;77.70
48836;DHT22;62581;47.342;7.908;2022-08-01T11:54:55;30.20;78.20
48836;DHT22;62581;47.342;7.908;2022-08-01T11:57:24;30.20;78.60
48836;DHT22;62581;47.342;7.908;2022-08-01T11:59:52;30.20;78.40
48836;DHT22;62581;47.342;7.908;2022-08-01T12:02:22;30.30;77.90
48836;DHT22;62581;47.342;7.908;2022-08-01T12:04:55;30.30;77.40
48836;DHT22;62581;47.342;7.908;2022-08-01T12:07:22;30.40;77.90
48836;DHT22;62581;47.342;7.908;2022-08-01T12:10:00;30.60;77.80
48836;DHT22;62581;47.342;7.908;2022-08-01T12:12:30;30.70;76.20
48836;DHT22;62581;47.342;7.908;2022-08-01T12:14:58;30.80;75.50
48836;DHT22;62581;47.342;7.908;2022-08-01T12:17:31;30.70;74.80
48836;DHT22;62581;47.342;7.908;2022-08-01T12:19:58;30.70;73.70
48836;DHT22;62581;47.342;7.908;2022-08-01T12:22:25;30.80;73.70
48836;DHT22;62581;47.342;7.908;2022-08-01T12:24:52;30.70;73.50
48836;DHT22;62581;47.342;7.908;2022-08-01T12:27:27;30.70;74.00
48836;DHT22;62581;47.342;7.908;2022-08-01T12:29:58;30.80;74.20
48836;DHT22;62581;47.342;7.908;2022-08-01T12:32:27;30.80;73.10
48836;DHT22;62581;47.342;7.908;2022-08-01T12:34:57;30.60;73.50
48836;DHT22;62581;47.342;7.908;2022-08-01T12:37:27;30.50;72.70
48836;DHT22;62581;47.342;7.908;2022-08-01T12:39:54;30.40;73.40
48836;DHT22;62581;47.342;7.908;2022-08-01T12:42:21;30.50;72.20
48836;DHT22;62581;47.342;7.908;2022-08-01T12:44:49;30.70;72.10
48836;DHT22;62581;47.342;7.908;2022-08-01T12:47:19;31.20;71.70
48836;DHT22;62581;47.342;7.908;2022-08-01T12:49:48;32.10;70.40
48836;DHT22;62581;47.342;7.908;2022-08-01T12:52:15;33.10;68.80
48836;DHT22;62581;47.342;7.908;2022-08-01T12:55:06;34.30;66.40
48836;DHT22;62581;47.342;7.908;2022-08-01T12:57:36;35.50;63.40
48836;DHT22;62581;47.342;7.908;2022-08-01T13:00:15;36.30;62.20
48836;DHT22;62581;47.342;7.908;2022-08-01T13:02:45;36.30;59.90
48836;DHT22;62581;47.342;7.908;2022-08-01T13:05:13;36.00;58.50
48836;DHT22;62581;47.342;7.908;2022-08-01T13:07:50;35.20;59.60
48836;DHT22;62581;47.342;7.908;2022-08-01T13:10:26;34.80;60.40
48836;DHT22;62581;47.342;7.908;2022-08-01T13:12:55;34.90;60.90
48836;DHT22;62581;47.342;7.908;2022-08-01T13:15:25;36.00;58.80
48836;DHT22;62581;47.342;7.908;2022-08-01T13:17:54;37.10;56.80
48836;DHT22;62581;47.342;7.908;2022-08-01T13:20:23;38.40;56.10
48836;DHT22;62581;47.342;7.908;2022-08-01T13:22:50;39.50;55.40
48836;DHT22;62581;47.342;7.908;2022-08-01T13:25:17;40.40;53.10
48836;DHT22;62581;47.342;7.908;2022-08-01T13:27:45;40.20;52.50
48836;DHT22;62581;47.342;7.908;2022-08-01T13:30:13;38.80;53.40
48836;DHT22;62581;47.342;7.908;2022-08-01T13:32:41;37.60;54.90
48836;DHT22;62581;47.342;7.908;2022-08-01T13:35:12;36.90;56.10
48836;DHT22;62581;47.342;7.908;2022-08-01T13:37:41;36.40;56.10
48836;DHT22;62581;47.342;7.908;2022-08-01T13:40:10;36.40;56.90
48836;DHT22;62581;47.342;7.908;2022-08-01T13:42:38;37.10;57.00
48836;DHT22;62581;47.342;7.908;2022-08-01T13:45:05;37.90;56.00
48836;DHT22;62581;47.342;7.908;2022-08-01T13:47:36;39.40;54.50
48836;DHT22;62581;47.342;7.908;2022-08-01T13:50:03;40.80;52.70
48836;DHT22;62581;47.342;7.908;2022-08-01T13:52:32;41.90;51.60
48836;DHT22;62581;47.342;7.908;2022-08-01T13:54:59;42.40;50.90
48836;DHT22;62581;47.342;7.908;2022-08-01T13:57:27;42.80;49.90
48836;DHT22;62581;47.342;7.908;2022-08-01T13:59:53;42.50;49.30
48836;DHT22;62581;47.342;7.908;2022-08-01T14:02:20;42.40;49.90
48836;DHT22;62581;47.342;7.908;2022-08-01T14:04:47;42.90;48.80
48836;DHT22;62581;47.342;7.908;2022-08-01T14:07:14;42.40;49.10
48836;DHT22;62581;47.342;7.908;2022-08-01T14:09:43;43.30;48.80
48836;DHT22;62581;47.342;7.908;2022-08-01T14:12:10;45.00;48.00
48836;DHT22;62581;47.342;7.908;2022-08-01T14:14:37;44.90;45.90
48836;DHT22;62581;47.342;7.908;2022-08-01T14:17:04;42.40;48.40
48836;DHT22;62581;47.342;7.908;2022-08-01T14:19:31;41.00;49.10
48836;DHT22;62581;47.342;7.908;2022-08-01T14:21:58;40.60;50.00
48836;DHT22;62581;47.342;7.908;2022-08-01T14:24:25;41.40;49.10
48836;DHT22;62581;47.342;7.908;2022-08-01T14:26:54;41.10;48.90
48836;DHT22;62581;47.342;7.908;2022-08-01T14:29:21;40.60;50.20
48836;DHT22;62581;47.342;7.908;2022-08-01T14:31:48;40.00;50.10
48836;DHT22;62581;47.342;7.908;2022-08-01T14:34:15;39.70;51.10
48836;DHT22;62581;47.342;7.908;2022-08-01T14:36:42;39.20;50.90
48836;DHT22;62581;47.342;7.908;2022-08-01T14:39:09;38.30;52.00
48836;DHT22;62581;47.342;7.908;2022-08-01T14:41:36;38.10;51.80
48836;DHT22;62581;47.342;7.908;2022-08-01T14:44:04;38.90;51.30
48836;DHT22;62581;47.342;7.908;2022-08-01T14:46:31;41.40;48.50
48836;DHT22;62581;47.342;7.908;2022-08-01T14:48:58;42.80;47.30
48836;DHT22;62581;47.342;7.908;2022-08-01T14:51:25;42.70;47.10
48836;DHT22;62581;47.342;7.908;2022-08-01T14:53:52;42.40;47.40
48836;DHT22;62581;47.342;7.908;2022-08-01T14:56:19;42.50;47.40
48836;DHT22;62581;47.342;7.908;2022-08-01T14:58:46;42.70;47.00
48836;DHT22;62581;47.342;7.908;2022-08-01T15:01:15;41.50;47.00
48836;DHT22;62581;47.342;7.908;2022-08-01T15:03:43;40.70;48.30
48836;DHT22;62581;47.342;7.908;2022-08-01T15:06:11;39.60;49.80
48836;DHT22;62581;47.342;7.908;2022-08-01T15:08:38;38.30;51.20
48836;DHT22;62581;47.342;7.908;2022-08-01T15:11:05;38.40;51.50
48836;DHT22;62581;47.342;7.908;2022-08-01T15:13:34;39.50;50.40
48836;DHT22;62581;47.342;7.908;2022-08-01T15:16:01;39.80;50.10
48836;DHT22;62581;47.342;7.908;2022-08-01T15:18:29;40.40;49.70
48836;DHT22;62581;47.342;7.908;2022-08-01T15:20:56;41.10;48.80
48836;DHT22;62581;47.342;7.908;2022-08-01T15:23:23;41.40;48.20
48836;DHT22;62581;47.342;7.908;2022-08-01T15:25:50;41.30;48.10
48836;DHT22;62581;47.342;7.908;2022-08-01T15:28:17;39.90;49.40
48836;DHT22;62581;47.342;7.908;2022-08-01T15:30:45;38.50;50.90
48836;DHT22;62581;47.342;7.908;2022-08-01T15:33:12;37.10;53.00
48836;DHT22;62581;47.342;7.908;2022-08-01T15:35:40;36.60;53.70
48836;DHT22;62581;47.342;7.908;2022-08-01T15:38:08;36.20;54.50
48836;DHT22;62581;47.342;7.908;2022-08-01T15:40:35;36.20;54.40
48836;DHT22;62581;47.342;7.908;2022-08-01T15:43:01;36.30;54.30
48836;DHT22;62581;47.342;7.908;2022-08-01T15:45:29;36.40;54.00
48836;DHT22;62581;47.342;7.908;2022-08-01T15:47:56;36.90;53.60
48836;DHT22;62581;47.342;7.908;2022-08-01T15:50:23;37.30;53.60